Terminal Aerodrome Forecast
Issued by NWS Duluth, MN

Home | Current Version | Previous Version | Text Only | Print | Product List | Glossary On
Versions: 1 2 3 4 5 6 7 8 9 10 11 12 13 14 15 16 17 18 19 20 21 22 23 24 25 26 27 28 29 30 31 32 33
159
FTUS43 KDLH 111239 AAG
TAFDLH
TAF AMD
KDLH 111239Z 1113/1212 18005KT 3SM -FZDZSN BR OVC005
     FM111400 VRB03KT 4SM -SN OVC010
     FM111600 33008G16KT P6SM -SN OVC025
     FM111800 34013G24KT P6SM BKN025
     FM112000 33016G29KT P6SM SCT030 BKN040
     FM120300 33012G22KT P6SM FEW030=

USA.gov is the U.S. government's official web portal to all federal, state and local government web resources and services.